Time;durP1;ratioP1;P1;durP2;ratioP2;P2;SDS_P1;SDS_P2;PMS_P1;PMS_P2;Temp;Humidity;BMP_temperature;BMP_pressure;BME280_temperature;BME280_humidity;BME280_pressure;Samples;Min_cycle;Max_cycle;Signal;HPM_P1;HPM_P2
2024/02/11 00:02:09;;;;;;;26.10;11.52;;;;;;;13.14;100.00;97565.03;5053569;28;20029;-70
2024/02/11 00:04:35;;;;;;;23.73;10.50;;;;;;;13.07;100.00;97565.50;5059415;28;20106;-70
2024/02/11 00:07:00;;;;;;;23.30;10.32;;;;;;;13.09;100.00;97629.19;5057151;28;20487;-71
2024/02/11 00:09:27;;;;;;;17.80;8.57;;;;;;;12.99;100.00;97608.59;5062292;28;20036;-70
2024/02/11 00:11:52;;;;;;;18.75;8.75;;;;;;;12.52;100.00;97494.13;5060632;28;20033;-69
2024/02/11 00:14:21;;;;;;;19.60;8.30;;;;;;;13.02;100.00;97565.03;5057892;28;20041;-69
2024/02/11 00:16:46;;;;;;;17.92;7.95;;;;;;;13.07;100.00;97518.81;5061806;28;20024;-70
2024/02/11 00:19:12;;;;;;;15.55;6.68;;;;;;;13.06;100.00;97517.19;5059752;28;20028;-71
2024/02/11 00:21:37;;;;;;;18.05;7.07;;;;;;;12.85;100.00;97610.59;5060472;28;20109;-70
2024/02/11 00:24:03;;;;;;;20.90;7.05;;;;;;;13.11;100.00;97558.47;5062083;28;20036;-70
2024/02/11 00:26:29;;;;;;;17.15;6.80;;;;;;;12.47;100.00;97447.00;5057853;28;20024;-70
2024/02/11 00:28:54;;;;;;;16.45;6.43;;;;;;;13.17;100.00;97557.16;5056398;28;20025;-74
2024/02/11 00:31:19;;;;;;;18.67;6.85;;;;;;;13.11;100.00;97527.84;5060279;28;20540;-71
2024/02/11 00:33:45;;;;;;;16.38;6.13;;;;;;;13.34;100.00;97538.78;5058031;28;20064;-69
2024/02/11 00:36:10;;;;;;;17.85;6.10;;;;;;;13.16;100.00;97533.41;5057879;28;20025;-69
2024/02/11 00:38:36;;;;;;;17.95;6.40;;;;;;;13.19;100.00;97578.28;5056163;28;20029;-70
2024/02/11 00:41:03;;;;;;;13.07;5.93;;;;;;;13.29;100.00;97574.88;5061915;28;20036;-71
2024/02/11 00:43:29;;;;;;;19.40;6.78;;;;;;;13.30;100.00;97576.50;5059154;28;20048;-69
2024/02/11 00:45:54;;;;;;;15.32;5.88;;;;;;;13.41;100.00;97573.13;5060610;28;20029;-70
2024/02/11 00:48:20;;;;;;;18.98;6.00;;;;;;;13.26;100.00;97603.19;5063921;28;20123;-70
2024/02/11 00:50:47;;;;;;;19.02;6.93;;;;;;;13.26;100.00;97615.13;5056241;28;20029;-69
2024/02/11 00:53:13;;;;;;;16.80;7.00;;;;;;;12.57;100.00;97543.03;5062272;28;20032;-69
2024/02/11 00:55:38;;;;;;;19.40;6.75;;;;;;;13.18;100.00;97584.28;5058736;28;20048;-69
2024/02/11 00:58:04;;;;;;;13.02;6.35;;;;;;;12.80;100.00;97501.31;5057868;28;20448;-70
2024/02/11 01:00:31;;;;;;;17.15;6.85;;;;;;;13.27;100.00;97611.66;5059747;28;20040;-70
2024/02/11 01:02:56;;;;;;;17.60;6.65;;;;;;;12.77;100.00;97549.19;5063986;28;20131;-70
2024/02/11 01:05:22;;;;;;;21.60;8.25;;;;;;;12.78;100.00;97617.88;5065705;28;20084;-70
2024/02/11 01:07:50;;;;;;;17.80;7.47;;;;;;;12.88;100.00;97674.91;5060633;28;20025;-71
2024/02/11 01:10:16;;;;;;;19.77;7.60;;;;;;;12.79;100.00;97636.56;5057668;28;20040;-71
2024/02/11 01:12:44;;;;;;;12.93;6.47;;;;;;;12.74;100.00;97643.72;5057816;28;20025;-70
2024/02/11 01:15:12;;;;;;;16.38;6.85;;;;;;;12.57;100.00;97618.66;5059975;28;20040;-75
2024/02/11 01:17:41;;;;;;;19.70;6.78;;;;;;;12.69;100.00;97588.00;5059201;28;20132;-75
2024/02/11 01:20:13;;;;;;;16.15;6.75;;;;;;;12.32;100.00;97497.38;5058529;28;20559;-71
2024/02/11 01:22:39;;;;;;;;;;;;;;;12.68;100.00;97532.84;5056820;28;20398;-70
2024/02/11 01:25:05;;;;;;;21.02;7.18;;;;;;;12.71;100.00;97526.69;5063390;28;19986;-71
2024/02/11 01:27:30;;;;;;;17.52;7.32;;;;;;;12.01;100.00;97435.22;5060620;28;20488;-74
2024/02/11 01:29:56;;;;;;;20.88;7.38;;;;;;;12.47;100.00;97475.03;5054516;28;20625;-70
2024/02/11 01:32:23;;;;;;;18.80;8.63;;;;;;;12.35;100.00;97437.75;5058334;28;20052;-70
2024/02/11 01:34:49;;;;;;;19.60;8.20;;;;;;;12.63;100.00;97471.22;5061443;28;20043;-71
2024/02/11 01:37:15;;;;;;;18.48;7.47;;;;;;;12.56;100.00;97408.06;5057115;28;20036;-70
2024/02/11 01:39:40;;;;;;;22.65;8.60;;;;;;;12.27;100.00;97361.94;5060979;28;20033;-70
2024/02/11 01:42:06;;;;;;;21.33;8.75;;;;;;;12.46;100.00;97432.66;5058481;28;20501;-72
2024/02/11 01:44:31;;;;;;;15.98;8.00;;;;;;;12.54;100.00;97413.28;5059055;28;20025;-71
2024/02/11 01:46:57;;;;;;;18.58;8.52;;;;;;;12.51;100.00;97430.56;5055936;28;20503;-71
2024/02/11 01:49:23;;;;;;;19.80;7.97;;;;;;;12.35;100.00;97437.75;5061781;28;20035;-71
2024/02/11 01:51:51;;;;;;;24.67;9.80;;;;;;;11.50;100.00;97262.66;5059857;28;20087;-70
2024/02/11 01:54:19;;;;;;;23.83;9.85;;;;;;;12.25;100.00;97396.88;5055848;28;20510;-71
2024/02/11 01:56:47;;;;;;;17.25;7.40;;;;;;;12.72;100.00;97195.22;5057323;28;20037;-72
2024/02/11 01:59:13;;;;;;;19.98;5.40;;;;;;;14.01;100.00;97212.38;5061766;28;20031;-70
2024/02/11 02:01:39;;;;;;;17.83;6.03;;;;;;;13.86;100.00;97296.25;5068294;28;20039;-72
2024/02/11 02:04:05;;;;;;;18.50;6.65;;;;;;;13.19;100.00;97300.22;5064591;28;20421;-71
2024/02/11 02:06:30;;;;;;;12.95;5.18;;;;;;;13.46;100.00;97352.34;5054308;28;20029;-72
2024/02/11 02:08:59;;;;;;;16.90;5.35;;;;;;;13.78;100.00;97433.97;5061514;28;20036;-71
2024/02/11 02:11:25;;;;;;;16.15;5.13;;;;;;;13.14;100.00;97336.28;5058850;28;20032;-71
2024/02/11 02:13:50;;;;;;;16.42;5.40;;;;;;;13.71;100.00;97458.34;5059263;28;20093;-69
2024/02/11 02:16:16;;;;;;;19.55;5.78;;;;;;;13.57;100.00;97467.13;5057896;28;20087;-70
2024/02/11 02:18:45;;;;;;;20.38;5.55;;;;;;;13.51;100.00;97437.00;5055074;28;20113;-70
2024/02/11 02:21:10;;;;;;;16.92;5.40;;;;;;;13.50;100.00;97432.03;5055642;28;20112;-71
2024/02/11 02:23:35;;;;;;;17.15;5.65;;;;;;;13.44;100.00;97461.41;5055487;28;20053;-70
2024/02/11 02:26:08;;;;;;;18.33;5.70;;;;;;;13.05;100.00;97362.56;5052669;28;20107;-70
2024/02/11 02:28:34;;;;;;;13.25;5.20;;;;;;;13.42;100.00;97399.47;5057609;28;20035;-73
2024/02/11 02:31:00;;;;;;;24.55;5.57;;;;;;;12.83;100.00;97332.00;5055909;28;21855;-70
2024/02/11 02:33:26;;;;;;;18.80;5.85;;;;;;;13.18;100.00;97434.59;5064506;28;20044;-70
2024/02/11 02:35:54;;;;;;;18.42;5.18;;;;;;;12.66;100.00;97340.16;5061079;28;20046;-70
2024/02/11 02:38:19;;;;;;;19.08;5.22;;;;;;;12.87;100.00;97431.09;5056226;28;20029;-70
2024/02/11 02:40:45;;;;;;;15.77;5.07;;;;;;;12.41;100.00;97320.91;5057250;28;20109;-71
2024/02/11 02:43:11;;;;;;;19.65;5.63;;;;;;;12.44;100.00;97314.78;5054705;28;20120;-71
2024/02/11 02:45:38;;;;;;;17.92;5.50;;;;;;;12.92;100.00;97367.78;5054428;28;20451;-70
2024/02/11 02:48:05;;;;;;;19.08;5.22;;;;;;;12.79;100.00;97311.06;5063612;28;20099;-71
2024/02/11 02:50:31;;;;;;;19.23;5.93;;;;;;;12.97;100.00;97347.03;5056894;28;20036;-70
2024/02/11 02:52:56;;;;;;;13.65;5.25;;;;;;;11.97;100.00;97113.03;5063211;28;20032;-70
2024/02/11 02:55:22;;;;;;;19.02;5.15;;;;;;;12.75;100.00;97261.25;5057486;28;20120;-71
2024/02/11 02:57:47;;;;;;;17.35;5.38;;;;;;;12.89;100.00;97211.69;5060600;28;20025;-71
2024/02/11 03:00:15;;;;;;;14.30;5.28;;;;;;;12.87;100.00;97213.56;5061095;28;20048;-72
2024/02/11 03:02:40;;;;;;;15.10;4.95;;;;;;;12.55;100.00;97159.28;5066772;28;20025;-70
2024/02/11 03:05:06;;;;;;;17.35;5.78;;;;;;;12.64;100.00;97116.03;5061010;28;20099;-72
2024/02/11 03:07:31;;;;;;;15.23;5.57;;;;;;;12.98;100.00;97150.53;5063034;28;20044;-70
2024/02/11 03:09:57;;;;;;;19.08;5.28;;;;;;;12.37;100.00;97071.63;5065351;28;20127;-70
2024/02/11 03:12:22;;;;;;;19.88;5.90;;;;;;;12.46;100.00;97093.81;5059975;28;20031;-70
2024/02/11 03:14:49;;;;;;;16.35;5.50;;;;;;;13.09;100.00;97228.75;5062778;28;20414;-69
2024/02/11 03:17:14;;;;;;;16.20;5.50;;;;;;;13.01;100.00;97191.06;5062163;28;20046;-71
2024/02/11 03:19:43;;;;;;;18.67;5.18;;;;;;;13.23;100.00;97117.91;5060384;28;20518;-70
2024/02/11 03:22:13;;;;;;;16.45;5.47;;;;;;;13.40;100.00;97141.06;5061655;28;20032;-69
2024/02/11 03:24:44;;;;;;;12.20;5.43;;;;;;;13.49;100.00;97167.56;5053613;28;20551;-70
2024/02/11 03:27:10;;;;;;;15.55;5.18;;;;;;;12.97;100.00;97086.94;5057199;28;20031;-72
2024/02/11 03:29:35;;;;;;;15.98;4.57;;;;;;;12.79;100.00;97084.19;5062044;28;20032;-70
2024/02/11 03:32:01;;;;;;;18.15;5.45;;;;;;;13.53;100.00;97181.63;5057106;28;20056;-70
2024/02/11 03:34:26;;;;;;;12.50;4.97;;;;;;;13.52;100.00;97137.47;5056841;28;20048;-70
2024/02/11 03:36:52;;;;;;;17.30;5.10;;;;;;;13.64;100.00;97176.44;5057841;28;20025;-71
2024/02/11 03:39:19;;;;;;;20.77;5.68;;;;;;;13.70;100.00;97197.16;5062940;28;20055;-71
2024/02/11 03:41:45;;;;;;;16.73;5.25;;;;;;;13.11;100.00;97136.81;5061831;28;20024;-72
2024/02/11 03:44:10;;;;;;;16.02;5.03;;;;;;;13.24;100.00;97173.09;5063264;28;20120;-74
2024/02/11 03:46:36;;;;;;;14.88;5.15;;;;;;;13.23;100.00;97144.22;5062774;28;20028;-72
2024/02/11 03:49:01;;;;;;;14.82;4.30;;;;;;;13.28;100.00;97148.94;5064447;28;20017;-73
2024/02/11 03:51:27;;;;;;;15.32;5.30;;;;;;;13.26;100.00;97220.50;5057027;28;20033;-71
2024/02/11 03:53:52;;;;;;;18.55;5.55;;;;;;;13.76;100.00;97306.44;5060899;28;20487;-70
2024/02/11 03:56:22;;;;;;;15.18;4.60;;;;;;;13.81;100.00;97342.59;5056313;28;20512;-71
2024/02/11 03:58:49;;;;;;;16.40;5.07;;;;;;;13.32;100.00;97240.41;5062123;28;20557;-74
2024/02/11 04:01:16;;;;;;;14.60;4.45;;;;;;;13.72;100.00;97384.22;5060143;28;20037;-75
2024/02/11 04:03:42;;;;;;;13.60;4.57;;;;;;;13.28;100.00;97307.09;5057091;28;20033;-74
2024/02/11 04:06:08;;;;;;;13.57;5.13;;;;;;;13.67;100.00;97380.41;5055581;28;20060;-71
2024/02/11 04:08:34;;;;;;;14.80;4.63;;;;;;;13.14;100.00;97326.09;5054075;28;20112;-69
2024/02/11 04:11:00;;;;;;;15.55;5.03;;;;;;;13.70;100.00;97403.13;5049799;28;20521;-69
2024/02/11 04:13:26;;;;;;;15.48;4.70;;;;;;;13.64;100.00;97411.28;5056803;28;20124;-73
2024/02/11 04:16:05;;;;;;;15.68;5.05;;;;;;;13.60;100.00;97415.84;5055565;28;20162;-71
2024/02/11 04:18:32;;;;;;;16.85;5.43;;;;;;;13.18;100.00;97334.28;5054682;28;21653;-72
2024/02/11 04:20:59;;;;;;;15.05;4.78;;;;;;;12.99;100.00;97312.00;5054524;28;20036;-70
2024/02/11 04:23:25;;;;;;;13.32;4.70;;;;;;;13.25;100.00;97377.03;5053244;28;20118;-70
2024/02/11 04:25:52;;;;;;;14.18;4.80;;;;;;;12.91;100.00;97330.44;5055946;28;20071;-70
2024/02/11 04:28:20;;;;;;;19.40;5.25;;;;;;;13.53;100.00;97447.06;5049211;28;20079;-72
2024/02/11 04:30:46;;;;;;;17.45;5.32;;;;;;;13.39;100.00;97421.88;5055527;28;20033;-70
2024/02/11 04:33:20;;;;;;;20.45;5.40;;;;;;;13.37;100.00;97388.81;5056345;28;20028;-76
2024/02/11 04:35:49;;;;;;;16.05;4.32;;;;;;;13.42;100.00;97386.72;5063169;28;20062;-71
2024/02/11 04:38:17;;;;;;;17.08;4.88;;;;;;;12.81;100.00;97299.00;5059985;28;20025;-71
2024/02/11 04:40:43;;;;;;;18.90;5.55;;;;;;;13.57;100.00;97420.38;5057296;28;20025;-70
2024/02/11 04:43:08;;;;;;;18.85;4.82;;;;;;;13.63;100.00;97387.50;5058195;28;20037;-72
2024/02/11 04:45:37;;;;;;;17.35;5.55;;;;;;;13.21;100.00;97300.91;5059557;28;20044;-73
2024/02/11 04:48:03;;;;;;;14.90;4.30;;;;;;;13.69;100.00;97387.00;5058633;28;20447;-74
2024/02/11 04:50:34;;;;;;;15.60;5.78;;;;;;;13.13;100.00;97309.19;5057218;28;20029;-73
2024/02/11 04:53:03;;;;;;;15.82;4.93;;;;;;;13.74;100.00;97407.88;5061709;28;20028;-77
2024/02/11 04:55:38;;;;;;;17.75;5.80;;;;;;;13.07;100.00;97319.88;5058266;28;20041;-74
2024/02/11 04:58:07;;;;;;;13.45;5.35;;;;;;;13.58;100.00;97434.75;5055482;28;20032;-73
2024/02/11 05:00:36;;;;;;;13.70;4.90;;;;;;;13.49;100.00;97469.47;5054781;28;20108;-74
2024/02/11 05:03:10;;;;;;;18.70;6.43;;;;;;;13.54;100.00;97387.44;5061484;28;20372;-76
2024/02/11 05:05:37;;;;;;;16.75;5.53;;;;;;;13.67;100.00;97422.06;5059228;28;20055;-75
2024/02/11 05:08:07;;;;;;;16.48;6.93;;;;;;;13.38;100.00;97351.34;5063383;28;20025;-74
2024/02/11 05:10:36;;;;;;;24.45;7.03;;;;;;;13.38;100.00;97399.84;5063326;28;20029;-74
2024/02/11 05:13:06;;;;;;;17.60;6.55;;;;;;;13.62;100.00;97419.09;5062775;28;20029;-73
2024/02/11 05:15:31;;;;;;;21.70;5.97;;;;;;;13.93;100.00;97407.16;5057675;28;20074;-74
2024/02/11 05:17:56;;;;;;;22.25;5.82;;;;;;;13.92;100.00;97411.44;5057556;28;20056;-74
2024/02/11 05:20:23;;;;;;;14.70;5.43;;;;;;;13.31;100.00;97315.31;5058520;28;20033;-78
2024/02/11 05:22:52;;;;;;;21.88;6.63;;;;;;;13.26;100.00;97383.78;5057126;28;20425;-79
2024/02/11 05:25:21;;;;;;;23.20;6.72;;;;;;;13.33;100.00;97377.22;5057522;28;20384;-75
2024/02/11 05:27:59;;;;;;;20.52;7.15;;;;;;;13.87;100.00;97536.16;5059327;28;20052;-74
2024/02/11 05:30:29;;;;;;;23.13;7.25;;;;;;;13.19;100.00;97446.44;5062482;28;20526;-74
2024/02/11 05:32:56;;;;;;;21.80;8.18;;;;;;;13.80;100.00;97559.75;5057203;28;20522;-73
2024/02/11 05:35:23;;;;;;;31.02;11.95;;;;;;;13.28;100.00;97465.28;5058854;28;20037;-77
2024/02/11 05:37:58;;;;;;;19.67;9.65;;;;;;;13.61;100.00;97549.38;5060806;28;20035;-73
2024/02/11 05:40:30;;;;;;;22.75;7.78;;;;;;;13.85;100.00;97588.28;5060862;28;20051;-72
2024/02/11 05:42:57;;;;;;;17.13;5.43;;;;;;;13.82;100.00;97552.78;5058349;28;20037;-75
2024/02/11 05:45:23;;;;;;;19.42;6.25;;;;;;;13.85;100.00;97563.56;5058233;28;20099;-74
2024/02/11 05:47:50;;;;;;;20.20;6.13;;;;;;;13.97;100.00;97586.50;5063898;28;20107;-73
2024/02/11 05:50:16;;;;;;;19.95;8.18;;;;;;;13.52;100.00;97489.69;5062326;28;20043;-74
2024/02/11 05:52:43;;;;;;;55.35;32.63;;;;;;;14.00;100.00;97586.25;5056806;28;20020;-74
2024/02/11 05:55:09;;;;;;;24.63;10.20;;;;;;;13.62;100.00;97528.03;5061982;28;20507;-74
2024/02/11 05:57:41;;;;;;;22.08;9.90;;;;;;;14.15;100.00;97602.91;5057066;28;20039;-73
2024/02/11 06:00:12;;;;;;;24.20;10.80;;;;;;;14.02;100.00;97612.50;5058685;28;20087;-74
2024/02/11 06:02:50;;;;;;;24.70;10.32;;;;;;;14.11;100.00;97644.97;5057709;28;20054;-74
2024/02/11 06:05:16;;;;;;;24.20;8.85;;;;;;;14.05;100.00;97651.38;5049445;28;20032;-75
2024/02/11 06:07:46;;;;;;;26.65;9.73;;;;;;;13.96;100.00;97672.56;5054479;28;21206;-74
2024/02/11 06:10:14;;;;;;;23.15;8.27;;;;;;;13.62;100.00;97577.34;5057590;28;20033;-74
2024/02/11 06:12:40;;;;;;;16.80;7.40;;;;;;;13.36;100.00;97558.16;5055717;28;20125;-74
2024/02/11 06:15:10;;;;;;;22.50;8.93;;;;;;;14.05;100.00;97668.44;5057827;28;20495;-73
2024/02/11 06:17:40;;;;;;;27.08;10.20;;;;;;;14.00;100.00;97696.09;5056659;28;20033;-72
2024/02/11 06:20:09;;;;;;;35.55;18.15;;;;;;;13.77;100.00;97708.09;5055689;28;20029;-75
2024/02/11 06:22:35;;;;;;;29.88;13.00;;;;;;;13.36;100.00;97621.97;5056075;28;20495;-74
2024/02/11 06:25:01;;;;;;;25.73;9.07;;;;;;;13.43;100.00;97538.88;5057185;28;20505;-74
2024/02/11 06:27:26;;;;;;;22.70;9.65;;;;;;;13.40;100.00;97597.84;5055569;28;20036;-74
2024/02/11 06:29:52;;;;;;;28.10;13.80;;;;;;;13.89;100.00;97651.78;5061536;28;20100;-74
2024/02/11 06:32:17;;;;;;;21.25;10.73;;;;;;;13.88;100.00;97654.47;5057364;28;20029;-74
2024/02/11 06:34:43;;;;;;;21.77;6.65;;;;;;;13.47;100.00;97532.59;5059230;28;20033;-73
2024/02/11 06:37:09;;;;;;;20.23;6.97;;;;;;;13.82;100.00;97630.22;5060952;28;20033;-76
2024/02/11 06:39:37;;;;;;;16.52;4.85;;;;;;;14.21;100.00;97483.13;5058902;28;20031;-75
2024/02/11 06:42:03;;;;;;;15.93;4.70;;;;;;;13.86;100.00;97468.13;5062552;28;20082;-74
2024/02/11 06:44:29;;;;;;;20.92;5.10;;;;;;;14.46;100.00;97584.97;5057053;28;20036;-75
2024/02/11 06:46:55;;;;;;;16.63;5.75;;;;;;;14.34;100.00;97574.97;5059140;28;20474;-74
2024/02/11 06:49:23;;;;;;;22.48;6.05;;;;;;;14.60;100.00;97596.63;5053200;28;20131;-74
2024/02/11 06:51:49;;;;;;;21.17;7.18;;;;;;;14.25;100.00;97550.13;5059626;28;20453;-78
2024/02/11 06:54:15;;;;;;;14.50;5.45;;;;;;;14.73;100.00;97638.16;5059392;28;20408;-73
2024/02/11 06:56:41;;;;;;;18.20;5.40;;;;;;;14.81;100.00;97648.56;5053794;28;20049;-78
2024/02/11 06:59:06;;;;;;;16.00;5.38;;;;;;;14.77;100.00;97660.81;5058573;28;20036;-74
2024/02/11 07:01:32;;;;;;;18.55;6.20;;;;;;;14.59;100.00;97635.94;5060346;28;20028;-72
2024/02/11 07:03:57;;;;;;;16.95;5.75;;;;;;;14.48;100.00;97607.88;5056572;28;20060;-81
2024/02/11 07:06:23;;;;;;;20.20;6.68;;;;;;;15.07;100.00;97707.81;5060390;28;20479;-72
2024/02/11 07:08:49;;;;;;;19.08;6.25;;;;;;;15.07;100.00;97753.88;5061650;28;20036;-73
2024/02/11 07:11:16;;;;;;;18.70;5.82;;;;;;;15.11;100.00;97806.44;5059040;28;20028;-73
2024/02/11 07:13:44;;;;;;;16.00;5.55;;;;;;;15.11;100.00;97840.53;5054973;28;20091;-80
2024/02/11 07:16:09;;;;;;;22.55;5.55;;;;;;;15.11;100.00;97857.63;5056610;28;20036;-72
2024/02/11 07:18:37;;;;;;;18.92;6.28;;;;;;;14.43;100.00;97773.59;5062197;28;20434;-75
2024/02/11 07:21:03;;;;;;;24.48;10.23;;;;;;;14.17;100.00;97727.06;5057579;28;20056;-73
2024/02/11 07:23:29;;;;;;;27.13;11.85;;;;;;;14.70;100.00;97838.69;5056748;28;20121;-74
2024/02/11 07:25:54;;;;;;;24.80;12.10;;;;;;;15.14;100.00;97906.00;5059226;28;20025;-74
2024/02/11 07:28:19;;;;;;;18.88;7.45;;;;;;;15.15;100.00;97930.66;5057223;28;20032;-74
2024/02/11 07:30:45;;;;;;;42.30;17.65;;;;;;;14.95;100.00;97932.25;5056261;28;20120;-75
2024/02/11 07:33:11;;;;;;;36.25;14.15;;;;;;;15.09;100.00;97946.50;5057509;28;20032;-74
2024/02/11 07:35:37;;;;;;;24.65;8.73;;;;;;;15.10;100.00;97959.19;5059201;28;20039;-75
2024/02/11 07:38:03;;;;;;;21.67;9.27;;;;;;;15.06;100.00;97939.06;5062609;28;20055;-73
2024/02/11 07:40:31;;;;;;;20.52;7.13;;;;;;;15.19;100.00;97998.59;5062562;28;20028;-73
2024/02/11 07:42:57;;;;;;;21.45;8.23;;;;;;;14.65;100.00;97897.09;5065487;28;20029;-73
2024/02/11 07:45:22;;;;;;;23.35;7.18;;;;;;;14.70;100.00;97925.66;5064398;28;20024;-73
2024/02/11 07:47:48;;;;;;;19.05;7.00;;;;;;;15.22;100.00;98017.09;5059182;28;20040;-73
2024/02/11 07:50:14;;;;;;;18.33;7.45;;;;;;;14.88;100.00;97969.47;5059771;28;20512;-74
2024/02/11 07:52:43;;;;;;;19.00;7.57;;;;;;;15.18;100.00;98032.78;5056378;28;20480;-75
2024/02/11 07:55:11;;;;;;;21.58;7.80;;;;;;;15.33;100.00;98027.28;5060484;28;20111;-73
2024/02/11 07:57:37;;;;;;;21.02;5.78;;;;;;;15.35;100.00;98033.09;5064390;28;20056;-74
2024/02/11 08:00:04;;;;;;;17.52;5.78;;;;;;;14.91;100.00;97959.00;5058360;28;20034;-74
2024/02/11 08:02:31;;;;;;;20.58;5.75;;;;;;;14.81;100.00;97955.53;5057552;28;20025;-75
2024/02/11 08:04:56;;;;;;;18.63;4.85;;;;;;;15.51;100.00;98092.47;5065976;28;20036;-74
2024/02/11 08:07:22;;;;;;;15.02;4.93;;;;;;;15.56;100.00;98090.38;5058181;28;20422;-73
2024/02/11 08:09:47;;;;;;;16.55;4.40;;;;;;;15.69;100.00;98126.06;5059226;28;20029;-74
2024/02/11 08:12:13;;;;;;;18.02;5.45;;;;;;;15.14;100.00;98060.38;5064205;28;20044;-74
2024/02/11 08:14:38;;;;;;;17.20;4.85;;;;;;;15.72;100.00;98158.31;5056196;28;20043;-73
2024/02/11 08:17:04;;;;;;;14.10;5.07;;;;;;;15.78;100.00;98216.78;5059561;28;20112;-72
2024/02/11 08:19:31;;;;;;;19.33;5.22;;;;;;;15.85;100.00;98207.66;5057302;28;20483;-74
2024/02/11 08:21:57;;;;;;;17.10;5.40;;;;;;;15.78;100.00;98168.91;5060554;28;20033;-73
2024/02/11 08:24:23;;;;;;;21.23;7.57;;;;;;;15.96;100.00;98184.59;5055861;28;20112;-73
2024/02/11 08:26:48;;;;;;;20.65;8.73;;;;;;;15.43;100.00;98092.25;5063787;28;20115;-74
2024/02/11 08:29:14;;;;;;;28.90;11.68;;;;;;;15.45;100.00;98113.41;5062439;28;20033;-74
2024/02/11 08:31:39;;;;;;;17.83;6.68;;;;;;;15.48;100.00;98128.56;5067120;28;20029;-74
2024/02/11 08:34:19;;;;;;;19.67;6.47;;;;;;;15.96;100.00;98252.06;5060611;28;20091;-74
2024/02/11 08:36:44;;;;;;;18.80;5.32;;;;;;;15.59;100.00;98194.31;5059526;28;20086;-73
2024/02/11 08:39:10;;;;;;;19.33;5.30;;;;;;;15.54;100.00;98206.66;5065775;28;20029;-74
2024/02/11 08:41:36;;;;;;;15.75;5.72;;;;;;;15.55;100.00;98201.41;5062649;28;20119;-74
2024/02/11 08:44:02;;;;;;;17.02;6.32;;;;;;;16.02;100.00;98292.59;5057705;28;20029;-75
2024/02/11 08:46:27;;;;;;;14.55;5.95;;;;;;;16.03;100.00;98303.63;5065434;28;20052;-73
2024/02/11 08:48:53;;;;;;;15.70;4.45;;;;;;;16.09;100.00;98339.06;5056255;28;20129;-74
2024/02/11 08:51:21;;;;;;;14.23;3.90;;;;;;;15.57;100.00;98240.53;5059755;28;20025;-73
2024/02/11 08:53:46;;;;;;;14.13;4.47;;;;;;;15.75;100.00;98266.50;5054823;28;20048;-72
2024/02/11 08:56:12;;;;;;;14.30;4.10;;;;;;;15.89;100.00;98288.50;5062836;28;20045;-74
2024/02/11 08:58:38;;;;;;;13.60;4.28;;;;;;;15.95;100.00;98298.28;5056018;28;20044;-74
2024/02/11 09:01:05;;;;;;;14.73;3.42;;;;;;;15.41;100.00;98185.47;5064727;28;20419;-73
2024/02/11 09:03:31;;;;;;;14.00;3.88;;;;;;;15.92;100.00;98283.16;5054791;28;20129;-72
2024/02/11 09:05:57;;;;;;;18.48;5.25;;;;;;;15.95;100.00;98306.78;5058951;28;20052;-73
2024/02/11 09:08:24;;;;;;;10.70;4.20;;;;;;;15.43;100.00;98184.44;5059676;28;20032;-73
2024/02/11 09:10:50;;;;;;;12.40;4.30;;;;;;;15.90;100.00;98261.97;5057286;28;20119;-73
2024/02/11 09:13:22;;;;;;;11.48;3.80;;;;;;;15.90;100.00;98282.47;5062460;28;20044;-73
2024/02/11 09:15:49;;;;;;;13.10;3.58;;;;;;;15.86;100.00;98317.75;5061648;28;20093;-73
2024/02/11 09:18:19;;;;;;;13.85;3.83;;;;;;;15.42;100.00;98216.09;5056321;28;20056;-72
2024/02/11 09:20:45;;;;;;;11.57;3.90;;;;;;;15.79;100.00;98282.44;5063046;28;20021;-74
2024/02/11 09:23:10;;;;;;;13.82;4.15;;;;;;;15.69;100.00;98214.94;5062054;28;20028;-72
2024/02/11 09:25:36;;;;;;;11.10;4.40;;;;;;;15.36;100.00;98144.84;5057685;28;20035;-73
2024/02/11 09:28:02;;;;;;;13.82;3.78;;;;;;;15.55;100.00;98160.44;5058581;28;20487;-73
2024/02/11 09:30:40;;;;;;;9.10;4.10;;;;;;;15.36;100.00;98126.91;5057555;28;20037;-74
2024/02/11 09:33:05;;;;;;;13.05;5.35;;;;;;;15.58;100.00;98144.03;5061522;28;20086;-75
2024/02/11 09:35:31;;;;;;;28.38;14.10;;;;;;;15.59;100.00;98115.72;5062237;28;21309;-74
2024/02/11 09:37:56;;;;;;;11.68;5.78;;;;;;;15.98;100.00;98223.72;5061252;28;20032;-75
2024/02/11 09:40:22;;;;;;;16.45;6.05;;;;;;;15.71;100.00;98105.47;5059829;28;20539;-74
2024/02/11 09:42:49;;;;;;;15.95;5.63;;;;;;;16.23;100.00;98226.81;5069992;28;20031;-75
2024/02/11 09:45:16;;;;;;;17.30;6.25;;;;;;;16.25;100.00;98229.25;5062290;28;20028;-75
2024/02/11 09:47:45;;;;;;;14.07;4.43;;;;;;;16.22;100.00;98240.56;5065856;28;20035;-74
2024/02/11 09:50:12;;;;;;;12.82;4.05;;;;;;;16.26;100.00;98279.63;5059708;28;20040;-73
2024/02/11 09:52:47;;;;;;;18.15;6.90;;;;;;;16.04;100.00;98265.09;5059809;28;20024;-74
2024/02/11 09:55:14;;;;;;;13.82;5.10;;;;;;;15.75;100.00;98220.38;5061972;28;20052;-74
2024/02/11 09:57:40;;;;;;;12.90;5.38;;;;;;;15.35;100.00;98150.09;5061877;28;20035;-73
2024/02/11 10:00:07;;;;;;;17.55;5.53;;;;;;;15.59;100.00;98194.31;5059706;28;20081;-74
2024/02/11 10:02:33;;;;;;;12.65;4.55;;;;;;;16.07;100.00;98269.16;5057506;28;20041;-74
2024/02/11 10:05:00;;;;;;;11.95;5.25;;;;;;;15.89;100.00;98256.00;5066659;28;20039;-73
2024/02/11 10:07:28;;;;;;;14.32;6.45;;;;;;;15.62;100.00;98191.53;5063036;28;20070;-73
2024/02/11 10:09:56;;;;;;;19.08;9.25;;;;;;;15.15;100.00;98123.44;5058797;28;20025;-73
2024/02/11 10:12:22;;;;;;;31.55;18.42;;;;;;;15.98;100.00;98249.38;5054572;28;20029;-73
2024/02/11 10:14:57;;;;;;;22.92;7.68;;;;;;;16.23;100.00;98280.66;5059303;28;20033;-74
2024/02/11 10:17:24;;;;;;;21.15;6.82;;;;;;;16.20;100.00;98201.41;5059223;28;20115;-74
2024/02/11 10:19:51;;;;;;;14.10;4.53;;;;;;;15.41;100.00;98062.56;5065000;28;20032;-73
2024/02/11 10:22:18;;;;;;;13.80;4.95;;;;;;;15.78;100.00;98106.59;5054962;28;20033;-74
2024/02/11 10:24:51;;;;;;;14.65;7.15;;;;;;;16.35;100.00;98212.19;5058222;28;20059;-74
2024/02/11 10:27:18;;;;;;;23.50;5.03;;;;;;;15.52;100.00;98091.53;5061384;28;20028;-74
2024/02/11 10:29:45;;;;;;;17.08;4.60;;;;;;;16.03;100.00;98183.97;5061700;28;20025;-74
2024/02/11 10:32:14;;;;;;;16.42;5.03;;;;;;;15.45;100.00;98034.03;5062569;28;20170;-74
2024/02/11 10:34:44;;;;;;;17.42;5.03;;;;;;;15.52;100.00;97971.16;5053041;28;20033;-74
2024/02/11 10:37:14;;;;;;;15.57;5.10;;;;;;;15.84;100.00;97949.81;5064867;28;20036;-74
2024/02/11 10:39:41;;;;;;;19.35;5.90;;;;;;;16.02;100.00;97905.53;5060030;28;20520;-74
2024/02/11 10:42:10;;;;;;;15.65;5.43;;;;;;;16.70;100.00;97956.16;5059098;28;20044;-74
2024/02/11 10:44:38;;;;;;;13.60;4.72;;;;;;;16.36;100.00;97858.16;5063040;28;20032;-73
2024/02/11 10:47:07;;;;;;;14.68;4.22;;;;;;;16.68;100.00;97899.03;5058214;28;20108;-73
2024/02/11 10:49:33;;;;;;;19.17;4.97;;;;;;;16.93;100.00;97890.84;5058614;28;20414;-74
2024/02/11 10:52:03;;;;;;;13.75;4.10;;;;;;;17.20;100.00;98024.53;5057157;28;20024;-73
2024/02/11 10:54:39;;;;;;;17.83;3.83;;;;;;;16.67;100.00;97961.56;5057996;28;20032;-73
2024/02/11 10:57:12;;;;;;;16.88;4.38;;;;;;;16.90;100.00;98039.16;5007230;28;1190705;-73
2024/02/11 10:59:42;;;;;;;16.17;4.93;;;;;;;17.42;100.00;98131.38;5059343;28;20047;-76
2024/02/11 11:02:10;;;;;;;15.55;3.95;;;;;;;16.88;100.00;98064.97;5057297;28;20029;-76
2024/02/11 11:04:39;;;;;;;17.60;4.63;;;;;;;17.57;100.00;98165.25;5054751;28;20028;-73
2024/02/11 11:07:08;;;;;;;16.25;4.40;;;;;;;17.64;100.00;98117.53;5060227;28;20033;-73
2024/02/11 11:09:34;;;;;;;13.32;4.20;;;;;;;17.70;100.00;98150.41;5063969;28;20062;-73
2024/02/11 11:12:08;;;;;;;20.70;6.80;;;;;;;17.74;100.00;98144.88;5063739;28;20103;-73
2024/02/11 11:14:42;;;;;;;21.15;6.80;;;;;;;17.80;100.00;98122.97;5060879;28;20045;-75
2024/02/11 11:17:16;;;;;;;19.20;3.80;;;;;;;18.05;100.00;98166.16;5064937;28;20037;-75